createdAt,value
2022-08-22T00:02:17.549Z,81.85
2022-08-22T00:02:57.556Z,81.05
2022-08-22T00:03:01.015Z,82.60
2022-08-22T00:05:26.024Z,81.66
2022-08-22T00:08:32.970Z,81.57
2022-08-22T00:11:59.269Z,81.62
2022-08-22T00:15:18.375Z,81.25
2022-08-22T00:18:52.649Z,81.20
2022-08-22T00:22:09.179Z,81.11
2022-08-22T00:25:25.494Z,81.04
2022-08-22T00:28:36.397Z,81.11
2022-08-22T00:31:51.971Z,81.12
2022-08-22T00:35:02.776Z,81.06
2022-08-22T00:38:13.003Z,81.11
2022-08-22T00:41:24.714Z,81.03
2022-08-22T00:44:58.073Z,80.94
2022-08-22T00:48:22.386Z,80.79
2022-08-22T00:51:51.112Z,80.59
2022-08-22T00:55:02.489Z,80.49
2022-08-22T00:58:37.440Z,80.43
2022-08-22T01:02:43.140Z,80.31
2022-08-22T01:06:06.820Z,80.24
2022-08-22T01:09:50.794Z,80.24
2022-08-22T01:13:02.343Z,80.38
2022-08-22T01:16:40.756Z,80.26
2022-08-22T01:20:28.010Z,80.24
2022-08-22T01:23:30.171Z,80.16
2022-08-22T01:26:53.028Z,80.38
2022-08-22T01:30:35.251Z,80.50
2022-08-22T01:34:12.832Z,80.60
2022-08-22T01:37:24.811Z,80.58
2022-08-22T01:40:57.996Z,80.63
2022-08-22T01:44:12.327Z,80.59
2022-08-22T01:47:21.739Z,80.53
2022-08-22T01:50:32.492Z,80.39
2022-08-22T01:53:50.293Z,80.26
2022-08-22T01:57:00.816Z,80.30
2022-08-22T02:00:16.615Z,80.21
2022-08-22T02:03:27.946Z,80.26
2022-08-22T02:06:40.999Z,80.36
2022-08-22T02:10:08.343Z,80.18
2022-08-22T02:13:13.616Z,80.21
2022-08-22T02:16:33.616Z,80.10
2022-08-22T02:19:49.644Z,80.06
2022-08-22T02:23:40.197Z,80.15
2022-08-22T02:27:05.289Z,80.14
2022-08-22T02:30:17.350Z,80.07
2022-08-22T02:33:49.289Z,80.13
2022-08-22T02:37:18.210Z,80.19
2022-08-22T02:40:35.013Z,80.08
2022-08-22T02:43:41.907Z,79.93
2022-08-22T02:47:06.871Z,79.82
2022-08-22T02:50:18.616Z,79.69
2022-08-22T02:53:32.438Z,79.86
2022-08-22T02:56:49.661Z,79.86
2022-08-22T03:00:31.334Z,79.87
2022-08-22T03:03:42.313Z,79.93
2022-08-22T03:07:00.091Z,79.99
2022-08-22T03:10:18.635Z,80.09
2022-08-22T03:13:40.194Z,80.24
2022-08-22T03:16:48.648Z,80.31
2022-08-22T03:20:05.286Z,80.30
2022-08-22T03:23:15.597Z,80.32
2022-08-22T03:26:26.411Z,80.26
2022-08-22T03:29:38.545Z,80.29
2022-08-22T03:32:51.987Z,80.16
2022-08-22T03:36:19.454Z,80.23
2022-08-22T03:39:42.909Z,80.28
2022-08-22T03:43:23.032Z,80.18
2022-08-22T03:46:46.063Z,80.25
2022-08-22T03:50:16.726Z,80.32
2022-08-22T03:53:24.896Z,80.28
2022-08-22T03:56:44.955Z,80.34
2022-08-22T04:00:31.977Z,80.44
2022-08-22T04:03:46.738Z,80.63
2022-08-22T04:07:05.936Z,80.65
2022-08-22T04:10:58.333Z,80.78
2022-08-22T04:14:25.962Z,80.81
2022-08-22T04:17:34.320Z,80.86
2022-08-22T04:21:07.500Z,80.87
2022-08-22T04:24:39.223Z,80.87
2022-08-22T04:27:52.266Z,80.72
2022-08-22T04:31:21.904Z,80.75
2022-08-22T04:34:52.136Z,80.67
2022-08-22T04:38:04.605Z,80.61
2022-08-22T04:41:18.214Z,80.51
2022-08-22T04:44:20.656Z,80.45
2022-08-22T04:47:39.189Z,80.44
2022-08-22T04:50:53.218Z,80.49
2022-08-22T04:54:18.750Z,80.41
2022-08-22T04:57:39.777Z,80.22
2022-08-22T05:00:59.118Z,80.03
2022-08-22T05:04:08.475Z,79.92
2022-08-22T05:07:25.143Z,79.91
2022-08-22T05:10:35.620Z,79.83
2022-08-22T05:13:47.671Z,79.70
2022-08-22T05:16:54.017Z,79.67
2022-08-22T05:20:00.405Z,79.68
2022-08-22T05:23:17.635Z,79.64
2022-08-22T05:26:21.683Z,79.58
2022-08-22T05:29:30.352Z,79.58
2022-08-22T05:33:09.008Z,79.51
2022-08-22T05:36:36.243Z,79.53
2022-08-22T05:39:47.060Z,79.35
2022-08-22T05:42:53.164Z,79.14
2022-08-22T05:45:58.732Z,78.74
2022-08-22T05:49:03.987Z,78.42
2022-08-22T05:52:22.565Z,77.87
2022-08-22T05:55:52.461Z,77.59
2022-08-22T05:59:05.826Z,77.40
2022-08-22T06:02:22.218Z,77.21
2022-08-22T06:05:31.706Z,76.64
2022-08-22T06:08:42.942Z,76.73
2022-08-22T06:12:21.750Z,76.28
2022-08-22T06:15:43.375Z,75.91
2022-08-22T06:18:52.068Z,75.77
2022-08-22T06:21:56.346Z,75.48
2022-08-22T06:25:12.391Z,75.41
2022-08-22T06:28:24.389Z,75.27
2022-08-22T06:31:35.925Z,75.10
2022-08-22T06:34:42.947Z,74.84
2022-08-22T06:37:50.271Z,74.69
2022-08-22T06:40:54.383Z,74.26
2022-08-22T06:44:00.467Z,74.18
2022-08-22T06:47:10.288Z,73.99
2022-08-22T06:50:36.149Z,73.96
2022-08-22T06:53:53.497Z,73.78
2022-08-22T06:57:04.335Z,73.34
2022-08-22T07:00:15.347Z,72.94
2022-08-22T07:03:27.345Z,72.24
2022-08-22T07:06:43.442Z,71.58
2022-08-22T07:09:51.756Z,70.48
2022-08-22T07:12:57.245Z,70.44
2022-08-22T07:16:01.943Z,70.37
2022-08-22T07:19:04.796Z,70.12
2022-08-22T07:22:35.167Z,69.93
2022-08-22T07:25:55.311Z,69.90
2022-08-22T07:29:19.547Z,69.65
2022-08-22T07:32:41.987Z,70.06
2022-08-22T07:35:53.594Z,70.71
2022-08-22T07:39:11.356Z,71.08
2022-08-22T07:42:21.679Z,71.35
2022-08-22T07:45:43.316Z,71.43
2022-08-22T07:49:08.294Z,71.49
2022-08-22T07:52:13.709Z,71.69
2022-08-22T07:55:20.778Z,71.74
2022-08-22T07:58:37.180Z,72.23
2022-08-22T08:01:46.098Z,72.33
2022-08-22T08:04:51.497Z,72.10
2022-08-22T08:07:56.349Z,72.21
2022-08-22T08:11:03.069Z,72.31
2022-08-22T08:14:07.921Z,72.28
2022-08-22T08:17:27.834Z,72.59
2022-08-22T08:20:36.336Z,72.34
2022-08-22T08:23:45.058Z,72.09
2022-08-22T08:27:20.802Z,71.60
2022-08-22T08:30:36.604Z,71.51
2022-08-22T08:33:44.650Z,71.42
2022-08-22T08:37:02.355Z,71.07
2022-08-22T08:40:18.403Z,70.87
2022-08-22T08:43:36.545Z,70.19
2022-08-22T08:46:55.429Z,68.71
2022-08-22T08:50:37.234Z,67.89
2022-08-22T08:53:54.661Z,66.88
2022-08-22T08:57:42.814Z,66.83
2022-08-22T09:01:03.377Z,66.04
2022-08-22T09:04:33.356Z,65.08
2022-08-22T09:07:54.350Z,64.67
2022-08-22T09:11:28.505Z,64.22
2022-08-22T09:15:02.694Z,63.43
2022-08-22T09:18:20.515Z,61.97
2022-08-22T09:21:31.202Z,61.31
2022-08-22T09:25:08.354Z,60.11
2022-08-22T09:28:30.523Z,59.59
2022-08-22T09:31:52.649Z,59.52
2022-08-22T09:35:42.228Z,59.52
2022-08-22T09:38:59.756Z,59.47
2022-08-22T09:42:24.615Z,59.43
2022-08-22T09:45:36.254Z,59.81
2022-08-22T09:48:38.645Z,60.54
2022-08-22T09:51:51.968Z,60.83
2022-08-22T09:55:08.135Z,61.32
2022-08-22T09:58:41.902Z,62.12
2022-08-22T10:01:51.337Z,63.08
2022-08-22T10:05:04.136Z,62.44
2022-08-22T10:08:19.672Z,63.12
2022-08-22T10:11:28.715Z,62.79
2022-08-22T10:15:06.877Z,61.75
2022-08-22T10:18:43.926Z,61.86
2022-08-22T10:22:15.293Z,60.35
2022-08-22T10:25:33.998Z,60.47
2022-08-22T10:28:53.322Z,60.25
2022-08-22T10:32:14.494Z,60.59
2022-08-22T10:35:25.761Z,61.19
2022-08-22T10:38:36.106Z,61.33
2022-08-22T10:41:53.281Z,61.02
2022-08-22T10:45:36.362Z,60.33
2022-08-22T10:49:08.179Z,59.05
2022-08-22T10:52:27.369Z,57.92
2022-08-22T10:55:32.242Z,56.51
2022-08-22T10:58:42.390Z,55.45
2022-08-22T11:02:06.309Z,54.39
2022-08-22T11:05:22.996Z,54.24
2022-08-22T11:08:53.172Z,54.83
2022-08-22T11:12:37.311Z,53.84
2022-08-22T11:15:51.271Z,52.89
2022-08-22T11:19:16.076Z,53.83
2022-08-22T11:22:55.630Z,53.61
2022-08-22T11:26:15.470Z,53.73
2022-08-22T11:29:48.766Z,53.27
2022-08-22T11:32:58.181Z,52.53
2022-08-22T11:36:12.161Z,53.38
2022-08-22T11:39:20.996Z,51.35
2022-08-22T11:42:47.400Z,50.32
2022-08-22T11:45:53.635Z,46.91
2022-08-22T11:49:32.889Z,46.29
2022-08-22T11:53:12.520Z,46.12
2022-08-22T11:56:51.762Z,44.77
2022-08-22T11:59:59.584Z,46.29
2022-08-22T12:03:59.683Z,47.45
2022-08-22T12:07:19.054Z,47.58
2022-08-22T12:10:30.399Z,48.63
2022-08-22T12:14:06.370Z,50.26
2022-08-22T12:17:22.811Z,52.71
2022-08-22T12:21:01.401Z,53.88
2022-08-22T12:24:40.479Z,54.72
2022-08-22T12:28:04.523Z,55.08
2022-08-22T12:31:21.870Z,55.67
2022-08-22T12:34:57.439Z,56.06
2022-08-22T12:38:28.074Z,55.99
2022-08-22T12:42:14.855Z,55.65
2022-08-22T12:45:27.320Z,55.91
2022-08-22T12:48:52.285Z,55.67
2022-08-22T12:52:19.936Z,55.44
2022-08-22T12:55:32.833Z,55.07
2022-08-22T12:59:12.837Z,55.13
2022-08-22T13:02:25.593Z,54.78
2022-08-22T13:05:34.277Z,54.08
2022-08-22T13:08:46.081Z,54.29
2022-08-22T13:11:52.451Z,55.02
2022-08-22T13:15:04.075Z,56.60
2022-08-22T13:18:29.372Z,60.33
2022-08-22T13:21:38.135Z,62.64
2022-08-22T13:24:56.884Z,63.97
2022-08-22T13:28:03.653Z,63.95
2022-08-22T13:31:09.100Z,65.99
2022-08-22T13:34:45.675Z,65.52
2022-08-22T13:37:52.373Z,66.10
2022-08-22T13:41:01.301Z,66.57
2022-08-22T13:44:06.652Z,66.33
2022-08-22T13:47:17.918Z,66.76
2022-08-22T13:50:28.906Z,65.94
2022-08-22T13:54:02.046Z,65.92
2022-08-22T13:57:17.709Z,66.10
2022-08-22T14:00:28.779Z,66.38
2022-08-22T14:03:57.615Z,66.24
2022-08-22T14:07:03.736Z,65.95
2022-08-22T14:10:15.358Z,65.75
2022-08-22T14:13:42.196Z,66.26
2022-08-22T14:16:50.828Z,65.73
2022-08-22T14:20:11.023Z,66.42
2022-08-22T14:23:22.625Z,66.29
2022-08-22T14:26:32.946Z,67.20
2022-08-22T14:29:40.481Z,67.91
2022-08-22T14:33:08.199Z,69.03
2022-08-22T14:36:17.123Z,70.41
2022-08-22T14:39:28.316Z,69.52
2022-08-22T14:42:44.246Z,70.40
2022-08-22T14:46:02.174Z,70.91
2022-08-22T14:49:20.839Z,71.17
2022-08-22T14:52:29.392Z,71.19
2022-08-22T14:55:32.853Z,71.46
2022-08-22T14:58:49.632Z,70.68
2022-08-22T15:02:05.602Z,71.36
2022-08-22T15:05:18.430Z,70.57
2022-08-22T15:08:24.406Z,70.53
2022-08-22T15:11:33.935Z,70.43
2022-08-22T15:14:37.479Z,69.14
2022-08-22T15:17:45.958Z,68.68
2022-08-22T15:21:08.619Z,68.72
2022-08-22T15:24:14.708Z,69.05
2022-08-22T15:27:21.165Z,68.25
2022-08-22T15:30:56.756Z,68.17
2022-08-22T15:34:33.715Z,67.91
2022-08-22T15:37:56.851Z,68.32
2022-08-22T15:41:24.417Z,67.92
2022-08-22T15:44:35.632Z,68.23
2022-08-22T15:47:41.330Z,68.36
2022-08-22T15:51:03.612Z,69.01
2022-08-22T15:54:24.329Z,69.11
2022-08-22T15:57:35.290Z,69.68
2022-08-22T16:01:19.890Z,70.29
2022-08-22T16:05:10.529Z,70.77
2022-08-22T16:08:48.437Z,70.48
2022-08-22T16:11:55.092Z,70.49
2022-08-22T16:14:59.498Z,70.49
2022-08-22T16:18:02.082Z,70.58
2022-08-22T16:21:38.304Z,70.56
2022-08-22T16:25:02.608Z,70.42
2022-08-22T16:28:06.308Z,70.48
2022-08-22T16:31:15.387Z,70.35
2022-08-22T16:34:43.023Z,70.47
2022-08-22T16:37:51.440Z,70.38
2022-08-22T16:40:54.421Z,70.39
2022-08-22T16:44:42.528Z,70.52
2022-08-22T16:47:58.225Z,70.63
2022-08-22T16:51:08.807Z,70.89
2022-08-22T16:54:52.500Z,70.92
2022-08-22T16:58:06.999Z,71.23
2022-08-22T17:01:28.172Z,71.66
2022-08-22T17:05:14.321Z,71.85
2022-08-22T17:08:50.719Z,72.00
2022-08-22T17:12:02.562Z,71.88
2022-08-22T17:15:28.816Z,71.81
2022-08-22T17:18:50.104Z,71.70
2022-08-22T17:22:28.495Z,71.87
2022-08-22T17:26:09.609Z,72.33
2022-08-22T17:29:30.924Z,72.77
2022-08-22T17:32:36.629Z,72.93
2022-08-22T17:36:26.584Z,73.47
2022-08-22T17:40:10.012Z,73.89
2022-08-22T17:43:42.971Z,74.07
2022-08-22T17:47:17.724Z,74.05
2022-08-22T17:50:37.548Z,74.24
2022-08-22T17:54:16.282Z,74.37
2022-08-22T17:57:47.076Z,74.50
2022-08-22T18:01:06.674Z,74.67
2022-08-22T18:04:17.610Z,74.69
2022-08-22T18:07:29.834Z,74.73
2022-08-22T18:11:09.322Z,74.59
2022-08-22T18:14:35.655Z,74.19
2022-08-22T18:17:47.194Z,74.06
2022-08-22T18:20:57.286Z,74.30
2022-08-22T18:24:14.243Z,74.66
2022-08-22T18:27:35.656Z,74.85
2022-08-22T18:30:57.398Z,74.88
2022-08-22T18:34:12.453Z,75.04
2022-08-22T18:37:35.457Z,75.17
2022-08-22T18:40:52.430Z,75.39
2022-08-22T18:44:06.004Z,75.36
2022-08-22T18:47:21.728Z,75.37
2022-08-22T18:50:40.556Z,75.40
2022-08-22T18:54:05.013Z,75.44
2022-08-22T18:58:03.722Z,75.54
2022-08-22T19:01:50.113Z,75.46
2022-08-22T19:05:17.533Z,75.61
2022-08-22T19:08:51.597Z,75.60
2022-08-22T19:12:21.848Z,75.64
2022-08-22T19:15:35.201Z,75.82
2022-08-22T19:18:37.781Z,76.12
2022-08-22T19:22:21.814Z,76.10
2022-08-22T19:25:27.527Z,76.28
2022-08-22T19:28:37.333Z,76.21
2022-08-22T19:31:45.909Z,76.10
2022-08-22T19:34:56.606Z,76.18
2022-08-22T19:38:07.505Z,76.31
2022-08-22T19:41:14.513Z,76.82
2022-08-22T19:44:22.000Z,76.95
2022-08-22T19:47:24.308Z,77.36
2022-08-22T19:50:33.118Z,77.50
2022-08-22T19:53:46.101Z,77.64
2022-08-22T19:57:09.958Z,77.42
2022-08-22T20:00:53.319Z,77.43
2022-08-22T20:04:21.435Z,77.75
2022-08-22T20:07:58.487Z,78.33
2022-08-22T20:11:17.747Z,78.27
2022-08-22T20:14:30.798Z,78.84
2022-08-22T20:17:40.912Z,79.35
2022-08-22T20:21:14.209Z,79.39
2022-08-22T20:24:16.877Z,79.15
2022-08-22T20:27:32.031Z,79.52
2022-08-22T20:30:46.827Z,79.65
2022-08-22T20:33:57.840Z,79.83
2022-08-22T20:37:29.267Z,80.09
2022-08-22T20:41:11.220Z,80.22
2022-08-22T20:44:39.878Z,80.24
2022-08-22T20:47:54.156Z,80.08
2022-08-22T20:51:06.902Z,80.24
2022-08-22T20:54:21.119Z,80.39
2022-08-22T20:57:23.664Z,80.45
2022-08-22T21:00:36.791Z,80.63
2022-08-22T21:03:51.922Z,80.65
2022-08-22T21:07:02.665Z,80.72
2022-08-22T21:10:37.006Z,80.69
2022-08-22T21:13:53.625Z,80.71
2022-08-22T21:17:34.443Z,80.59
2022-08-22T21:20:42.025Z,80.64
2022-08-22T21:23:51.314Z,80.62
2022-08-22T21:27:02.312Z,80.57
2022-08-22T21:30:10.320Z,80.27
2022-08-22T21:33:23.936Z,80.15
2022-08-22T21:36:37.910Z,80.31
2022-08-22T21:39:52.635Z,80.28
2022-08-22T21:43:02.776Z,80.29
2022-08-22T21:46:07.081Z,80.15
2022-08-22T21:49:23.201Z,79.97
2022-08-22T21:52:27.358Z,80.04
2022-08-22T21:55:29.895Z,80.16
2022-08-22T21:58:36.723Z,80.19
2022-08-22T22:01:42.625Z,80.29
2022-08-22T22:04:45.324Z,80.11
2022-08-22T22:07:47.931Z,80.24
2022-08-22T22:10:53.241Z,80.21
2022-08-22T22:13:55.697Z,80.12
2022-08-22T22:17:04.801Z,80.36
2022-08-22T22:20:08.140Z,80.34
2022-08-22T22:23:10.725Z,80.29
2022-08-22T22:26:14.287Z,79.96
2022-08-22T22:29:16.887Z,79.97
2022-08-22T22:32:19.210Z,80.05
2022-08-22T22:35:21.800Z,79.84
2022-08-22T22:38:24.535Z,79.85
2022-08-22T22:41:27.115Z,79.74
2022-08-22T22:44:29.392Z,79.77
2022-08-22T22:47:33.555Z,79.50
2022-08-22T22:50:40.633Z,79.42
2022-08-22T22:53:44.887Z,79.37
2022-08-22T22:56:47.998Z,79.38
2022-08-22T22:59:50.623Z,79.30
2022-08-22T23:02:53.409Z,79.42
2022-08-22T23:05:55.978Z,79.47
2022-08-22T23:08:58.393Z,79.42
2022-08-22T23:12:02.937Z,79.52
2022-08-22T23:15:07.174Z,79.51
2022-08-22T23:18:09.705Z,79.55
2022-08-22T23:21:12.061Z,79.54
2022-08-22T23:24:15.255Z,79.51
2022-08-22T23:27:18.097Z,79.49
2022-08-22T23:30:21.396Z,79.56
2022-08-22T23:33:24.675Z,79.49
2022-08-22T23:36:27.388Z,79.55
2022-08-22T23:39:30.970Z,80.07
2022-08-22T23:42:33.557Z,80.36
2022-08-22T23:45:35.966Z,80.58
2022-08-22T23:48:38.715Z,81.13
2022-08-22T23:51:42.776Z,81.03
2022-08-22T23:54:45.381Z,81.06
2022-08-22T23:57:47.651Z,81.20
